sensor_id;sensor_type;location;lat;lon;timestamp;P1;durP1;ratioP1;P2;durP2;ratioP2
2712;SDS011;1366;47.988;7.856;2023-03-23T05:02:42;2.77;;;2.57;;
2712;SDS011;1366;47.988;7.856;2023-03-23T05:05:10;2.87;;;2.67;;
2712;SDS011;1366;47.988;7.856;2023-03-23T05:07:37;2.43;;;2.30;;
2712;SDS011;1366;47.988;7.856;2023-03-23T05:10:04;2.70;;;2.50;;
2712;SDS011;1366;47.988;7.856;2023-03-23T05:12:30;2.70;;;2.50;;
2712;SDS011;1366;47.988;7.856;2023-03-23T05:14:56;2.90;;;2.30;;
2712;SDS011;1366;47.988;7.856;2023-03-23T05:17:22;2.83;;;2.70;;
2712;SDS011;1366;47.988;7.856;2023-03-23T05:19:49;2.80;;;2.60;;
2712;SDS011;1366;47.988;7.856;2023-03-23T05:22:15;2.70;;;2.50;;
2712;SDS011;1366;47.988;7.856;2023-03-23T05:24:42;2.50;;;2.40;;
2712;SDS011;1366;47.988;7.856;2023-03-23T05:27:11;3.00;;;2.77;;
2712;SDS011;1366;47.988;7.856;2023-03-23T05:29:37;2.60;;;2.40;;
2712;SDS011;1366;47.988;7.856;2023-03-23T05:32:05;2.70;;;2.50;;
2712;SDS011;1366;47.988;7.856;2023-03-23T05:34:32;2.47;;;2.27;;
2712;SDS011;1366;47.988;7.856;2023-03-23T05:36:59;3.23;;;2.90;;
2712;SDS011;1366;47.988;7.856;2023-03-23T05:39:25;2.80;;;2.60;;
2712;SDS011;1366;47.988;7.856;2023-03-23T05:41:52;2.70;;;2.50;;
2712;SDS011;1366;47.988;7.856;2023-03-23T05:44:18;5.80;;;3.17;;
2712;SDS011;1366;47.988;7.856;2023-03-23T05:46:44;3.00;;;2.70;;
2712;SDS011;1366;47.988;7.856;2023-03-23T05:49:11;3.03;;;2.83;;
2712;SDS011;1366;47.988;7.856;2023-03-23T05:51:37;3.03;;;2.80;;
2712;SDS011;1366;47.988;7.856;2023-03-23T05:54:03;3.33;;;3.03;;
2712;SDS011;1366;47.988;7.856;2023-03-23T05:56:29;3.10;;;2.80;;
2712;SDS011;1366;47.988;7.856;2023-03-23T05:58:56;2.67;;;2.47;;
2712;SDS011;1366;47.988;7.856;2023-03-23T06:01:22;2.80;;;2.60;;
2712;SDS011;1366;47.988;7.856;2023-03-23T06:03:49;3.20;;;2.87;;
2712;SDS011;1366;47.988;7.856;2023-03-23T06:06:18;3.60;;;3.30;;
2712;SDS011;1366;47.988;7.856;2023-03-23T06:08:44;2.73;;;2.53;;
2712;SDS011;1366;47.988;7.856;2023-03-23T06:11:10;3.20;;;3.00;;
2712;SDS011;1366;47.988;7.856;2023-03-23T06:13:37;3.03;;;2.73;;
2712;SDS011;1366;47.988;7.856;2023-03-23T06:16:03;3.00;;;2.80;;
2712;SDS011;1366;47.988;7.856;2023-03-23T06:18:29;3.20;;;3.00;;
2712;SDS011;1366;47.988;7.856;2023-03-23T06:20:58;3.40;;;3.10;;
2712;SDS011;1366;47.988;7.856;2023-03-23T06:23:25;4.00;;;3.70;;
2712;SDS011;1366;47.988;7.856;2023-03-23T06:25:53;3.50;;;3.20;;
2712;SDS011;1366;47.988;7.856;2023-03-23T06:28:19;3.70;;;3.40;;
2712;SDS011;1366;47.988;7.856;2023-03-23T06:30:45;3.10;;;2.90;;
2712;SDS011;1366;47.988;7.856;2023-03-23T06:33:11;3.40;;;3.20;;
2712;SDS011;1366;47.988;7.856;2023-03-23T06:35:37;3.60;;;3.40;;
2712;SDS011;1366;47.988;7.856;2023-03-23T06:38:04;3.37;;;3.17;;
2712;SDS011;1366;47.988;7.856;2023-03-23T06:40:30;3.60;;;3.30;;
2712;SDS011;1366;47.988;7.856;2023-03-23T06:42:56;3.40;;;3.10;;
2712;SDS011;1366;47.988;7.856;2023-03-23T06:45:25;3.53;;;3.23;;
2712;SDS011;1366;47.988;7.856;2023-03-23T06:47:51;3.63;;;3.23;;
2712;SDS011;1366;47.988;7.856;2023-03-23T06:50:18;3.00;;;2.80;;
2712;SDS011;1366;47.988;7.856;2023-03-23T06:52:48;3.93;;;3.10;;
2712;SDS011;1366;47.988;7.856;2023-03-23T06:55:14;5.60;;;3.37;;
2712;SDS011;1366;47.988;7.856;2023-03-23T06:57:41;4.10;;;3.40;;
2712;SDS011;1366;47.988;7.856;2023-03-23T07:00:07;3.10;;;2.70;;
2712;SDS011;1366;47.988;7.856;2023-03-23T07:02:38;3.43;;;3.13;;
2712;SDS011;1366;47.988;7.856;2023-03-23T07:05:05;3.53;;;3.00;;
2712;SDS011;1366;47.988;7.856;2023-03-23T07:07:32;2.77;;;2.57;;
2712;SDS011;1366;47.988;7.856;2023-03-23T07:09:58;2.77;;;2.57;;
2712;SDS011;1366;47.988;7.856;2023-03-23T07:12:24;2.90;;;2.70;;
2712;SDS011;1366;47.988;7.856;2023-03-23T07:14:50;3.10;;;2.90;;
2712;SDS011;1366;47.988;7.856;2023-03-23T07:17:16;2.93;;;2.80;;
2712;SDS011;1366;47.988;7.856;2023-03-23T07:19:42;3.57;;;3.27;;
2712;SDS011;1366;47.988;7.856;2023-03-23T07:22:08;3.67;;;3.00;;
2712;SDS011;1366;47.988;7.856;2023-03-23T07:24:35;3.40;;;3.13;;
2712;SDS011;1366;47.988;7.856;2023-03-23T07:27:01;3.40;;;2.80;;
2712;SDS011;1366;47.988;7.856;2023-03-23T07:29:27;4.73;;;2.83;;
2712;SDS011;1366;47.988;7.856;2023-03-23T07:31:53;3.33;;;2.90;;
2712;SDS011;1366;47.988;7.856;2023-03-23T07:34:20;3.20;;;3.00;;
2712;SDS011;1366;47.988;7.856;2023-03-23T07:36:46;2.70;;;2.50;;
2712;SDS011;1366;47.988;7.856;2023-03-23T07:39:13;3.07;;;2.87;;
2712;SDS011;1366;47.988;7.856;2023-03-23T07:41:39;2.93;;;2.73;;
2712;SDS011;1366;47.988;7.856;2023-03-23T07:44:05;3.70;;;3.40;;
2712;SDS011;1366;47.988;7.856;2023-03-23T07:46:32;2.80;;;2.60;;
2712;SDS011;1366;47.988;7.856;2023-03-23T07:48:59;4.17;;;2.97;;
2712;SDS011;1366;47.988;7.856;2023-03-23T07:51:29;3.30;;;3.10;;
2712;SDS011;1366;47.988;7.856;2023-03-23T07:53:55;3.20;;;2.90;;
2712;SDS011;1366;47.988;7.856;2023-03-23T07:56:21;3.37;;;2.93;;
2712;SDS011;1366;47.988;7.856;2023-03-23T07:58:48;3.90;;;3.30;;
2712;SDS011;1366;47.988;7.856;2023-03-23T08:01:14;3.13;;;2.93;;
2712;SDS011;1366;47.988;7.856;2023-03-23T08:03:41;2.87;;;2.67;;
2712;SDS011;1366;47.988;7.856;2023-03-23T08:06:07;3.10;;;2.80;;
2712;SDS011;1366;47.988;7.856;2023-03-23T08:08:34;3.70;;;3.20;;
2712;SDS011;1366;47.988;7.856;2023-03-23T08:11:02;3.40;;;3.20;;
2712;SDS011;1366;47.988;7.856;2023-03-23T08:13:28;3.67;;;3.37;;
2712;SDS011;1366;47.988;7.856;2023-03-23T08:15:54;3.10;;;2.77;;
2712;SDS011;1366;47.988;7.856;2023-03-23T08:18:21;3.20;;;2.90;;
2712;SDS011;1366;47.988;7.856;2023-03-23T08:20:47;3.33;;;3.13;;
2712;SDS011;1366;47.988;7.856;2023-03-23T08:23:14;3.13;;;2.93;;
2712;SDS011;1366;47.988;7.856;2023-03-23T08:25:41;3.43;;;3.17;;
2712;SDS011;1366;47.988;7.856;2023-03-23T08:28:08;3.13;;;2.93;;
2712;SDS011;1366;47.988;7.856;2023-03-23T08:30:34;3.00;;;2.60;;
2712;SDS011;1366;47.988;7.856;2023-03-23T08:33:02;3.40;;;3.10;;
2712;SDS011;1366;47.988;7.856;2023-03-23T08:35:29;4.00;;;3.53;;
2712;SDS011;1366;47.988;7.856;2023-03-23T08:37:56;3.60;;;3.30;;
2712;SDS011;1366;47.988;7.856;2023-03-23T08:40:22;3.23;;;3.03;;
2712;SDS011;1366;47.988;7.856;2023-03-23T08:42:49;3.43;;;3.23;;
2712;SDS011;1366;47.988;7.856;2023-03-23T08:45:17;5.20;;;3.20;;
2712;SDS011;1366;47.988;7.856;2023-03-23T08:47:43;5.20;;;3.30;;
2712;SDS011;1366;47.988;7.856;2023-03-23T08:50:12;3.77;;;3.47;;
2712;SDS011;1366;47.988;7.856;2023-03-23T08:52:38;4.03;;;3.73;;
2712;SDS011;1366;47.988;7.856;2023-03-23T08:55:05;3.50;;;3.30;;
2712;SDS011;1366;47.988;7.856;2023-03-23T08:57:33;3.90;;;3.57;;
2712;SDS011;1366;47.988;7.856;2023-03-23T09:00:01;5.23;;;3.27;;
2712;SDS011;1366;47.988;7.856;2023-03-23T09:02:38;3.77;;;3.47;;
2712;SDS011;1366;47.988;7.856;2023-03-23T09:05:04;4.00;;;3.70;;
2712;SDS011;1366;47.988;7.856;2023-03-23T09:07:30;5.53;;;3.83;;
2712;SDS011;1366;47.988;7.856;2023-03-23T09:09:56;3.40;;;3.20;;
2712;SDS011;1366;47.988;7.856;2023-03-23T09:12:22;3.80;;;3.50;;
2712;SDS011;1366;47.988;7.856;2023-03-23T09:14:48;3.80;;;3.50;;
2712;SDS011;1366;47.988;7.856;2023-03-23T09:17:14;3.57;;;3.27;;
2712;SDS011;1366;47.988;7.856;2023-03-23T09:19:40;3.13;;;2.90;;
2712;SDS011;1366;47.988;7.856;2023-03-23T09:22:07;3.17;;;2.93;;
2712;SDS011;1366;47.988;7.856;2023-03-23T09:24:33;3.30;;;3.00;;
2712;SDS011;1366;47.988;7.856;2023-03-23T09:27:00;3.90;;;3.57;;
2712;SDS011;1366;47.988;7.856;2023-03-23T09:29:26;3.50;;;3.30;;
2712;SDS011;1366;47.988;7.856;2023-03-23T09:31:53;2.90;;;2.70;;
2712;SDS011;1366;47.988;7.856;2023-03-23T09:34:21;3.77;;;2.73;;
2712;SDS011;1366;47.988;7.856;2023-03-23T09:36:47;3.23;;;3.03;;
2712;SDS011;1366;47.988;7.856;2023-03-23T09:39:14;2.67;;;2.57;;
2712;SDS011;1366;47.988;7.856;2023-03-23T09:42:05;2.77;;;2.57;;
2712;SDS011;1366;47.988;7.856;2023-03-23T09:44:38;2.30;;;2.20;;
2712;SDS011;1366;47.988;7.856;2023-03-23T09:49:37;2.53;;;2.33;;
2712;SDS011;1366;47.988;7.856;2023-03-23T09:54:41;2.50;;;2.30;;
2712;SDS011;1366;47.988;7.856;2023-03-23T10:00:08;2.67;;;2.50;;
2712;SDS011;1366;47.988;7.856;2023-03-23T10:02:41;2.63;;;2.43;;
2712;SDS011;1366;47.988;7.856;2023-03-23T10:07:39;2.73;;;2.53;;
2712;SDS011;1366;47.988;7.856;2023-03-23T10:10:08;2.83;;;2.67;;
2712;SDS011;1366;47.988;7.856;2023-03-23T10:12:56;3.10;;;2.90;;
2712;SDS011;1366;47.988;7.856;2023-03-23T10:15:27;2.30;;;2.10;;
2712;SDS011;1366;47.988;7.856;2023-03-23T10:17:56;2.23;;;2.13;;
2712;SDS011;1366;47.988;7.856;2023-03-23T10:22:56;2.90;;;2.67;;
2712;SDS011;1366;47.988;7.856;2023-03-23T10:25:25;2.50;;;2.30;;
2712;SDS011;1366;47.988;7.856;2023-03-23T10:30:21;2.63;;;2.43;;
2712;SDS011;1366;47.988;7.856;2023-03-23T10:33:01;2.50;;;2.40;;
2712;SDS011;1366;47.988;7.856;2023-03-23T10:35:31;2.43;;;2.23;;
2712;SDS011;1366;47.988;7.856;2023-03-23T10:38:02;2.30;;;2.20;;
2712;SDS011;1366;47.988;7.856;2023-03-23T10:40:29;2.50;;;2.40;;
2712;SDS011;1366;47.988;7.856;2023-03-23T10:42:58;2.83;;;2.60;;
2712;SDS011;1366;47.988;7.856;2023-03-23T10:45:26;2.70;;;2.50;;
2712;SDS011;1366;47.988;7.856;2023-03-23T10:50:39;2.20;;;2.10;;
2712;SDS011;1366;47.988;7.856;2023-03-23T10:53:13;2.23;;;2.13;;
2712;SDS011;1366;47.988;7.856;2023-03-23T10:55:41;2.57;;;2.20;;
2712;SDS011;1366;47.988;7.856;2023-03-23T10:58:10;2.40;;;2.20;;
2712;SDS011;1366;47.988;7.856;2023-03-23T11:00:44;2.33;;;2.10;;
2712;SDS011;1366;47.988;7.856;2023-03-23T11:05:49;2.40;;;2.30;;
2712;SDS011;1366;47.988;7.856;2023-03-23T11:08:19;2.60;;;2.40;;
2712;SDS011;1366;47.988;7.856;2023-03-23T11:10:49;3.70;;;2.40;;
2712;SDS011;1366;47.988;7.856;2023-03-23T11:13:17;2.63;;;2.30;;
2712;SDS011;1366;47.988;7.856;2023-03-23T11:18:23;3.07;;;2.60;;
2712;SDS011;1366;47.988;7.856;2023-03-23T11:20:51;2.40;;;2.20;;
2712;SDS011;1366;47.988;7.856;2023-03-23T11:23:32;2.50;;;2.30;;
2712;SDS011;1366;47.988;7.856;2023-03-23T11:26:08;2.80;;;2.50;;
2712;SDS011;1366;47.988;7.856;2023-03-23T11:28:36;2.90;;;2.50;;
2712;SDS011;1366;47.988;7.856;2023-03-23T11:31:04;2.30;;;2.10;;
2712;SDS011;1366;47.988;7.856;2023-03-23T11:34:04;2.50;;;2.30;;
2712;SDS011;1366;47.988;7.856;2023-03-23T11:41:46;2.80;;;2.60;;
2712;SDS011;1366;47.988;7.856;2023-03-23T11:44:13;2.80;;;2.60;;
2712;SDS011;1366;47.988;7.856;2023-03-23T11:46:52;2.67;;;2.30;;
2712;SDS011;1366;47.988;7.856;2023-03-23T11:49:25;2.90;;;2.70;;
2712;SDS011;1366;47.988;7.856;2023-03-23T11:51:55;2.80;;;2.60;;
2712;SDS011;1366;47.988;7.856;2023-03-23T11:54:28;3.27;;;2.90;;
2712;SDS011;1366;47.988;7.856;2023-03-23T11:56:55;2.80;;;2.60;;
2712;SDS011;1366;47.988;7.856;2023-03-23T11:59:34;3.23;;;2.93;;
2712;SDS011;1366;47.988;7.856;2023-03-23T12:12:18;3.07;;;2.80;;
2712;SDS011;1366;47.988;7.856;2023-03-23T12:14:53;3.00;;;2.80;;
2712;SDS011;1366;47.988;7.856;2023-03-23T12:28:09;2.70;;;2.50;;
2712;SDS011;1366;47.988;7.856;2023-03-23T12:30:40;3.50;;;2.90;;
2712;SDS011;1366;47.988;7.856;2023-03-23T12:46:16;4.13;;;2.83;;
2712;SDS011;1366;47.988;7.856;2023-03-23T12:49:05;2.60;;;2.50;;
2712;SDS011;1366;47.988;7.856;2023-03-23T13:01:39;2.80;;;2.60;;
2712;SDS011;1366;47.988;7.856;2023-03-23T13:04:10;2.47;;;2.37;;
2712;SDS011;1366;47.988;7.856;2023-03-23T13:06:38;2.77;;;2.57;;
2712;SDS011;1366;47.988;7.856;2023-03-23T13:09:09;3.07;;;2.87;;
2712;SDS011;1366;47.988;7.856;2023-03-23T13:11:37;2.50;;;2.27;;
2712;SDS011;1366;47.988;7.856;2023-03-23T13:16:45;3.23;;;3.03;;
2712;SDS011;1366;47.988;7.856;2023-03-23T13:19:16;4.10;;;2.53;;
2712;SDS011;1366;47.988;7.856;2023-03-23T13:21:45;2.83;;;2.63;;
2712;SDS011;1366;47.988;7.856;2023-03-23T13:24:19;2.43;;;2.33;;
2712;SDS011;1366;47.988;7.856;2023-03-23T13:26:48;3.00;;;2.60;;
2712;SDS011;1366;47.988;7.856;2023-03-23T13:29:17;2.60;;;2.33;;
2712;SDS011;1366;47.988;7.856;2023-03-23T13:31:44;4.33;;;2.60;;
2712;SDS011;1366;47.988;7.856;2023-03-23T13:34:18;2.37;;;2.13;;
2712;SDS011;1366;47.988;7.856;2023-03-23T13:36:58;2.70;;;2.50;;
2712;SDS011;1366;47.988;7.856;2023-03-23T13:39:28;2.60;;;2.30;;
2712;SDS011;1366;47.988;7.856;2023-03-23T13:44:41;2.63;;;2.40;;
2712;SDS011;1366;47.988;7.856;2023-03-23T13:49:52;2.93;;;2.70;;
2712;SDS011;1366;47.988;7.856;2023-03-23T13:54:47;3.60;;;3.13;;
2712;SDS011;1366;47.988;7.856;2023-03-23T13:59:56;2.60;;;2.50;;
2712;SDS011;1366;47.988;7.856;2023-03-23T14:02:38;3.13;;;2.90;;
2712;SDS011;1366;47.988;7.856;2023-03-23T14:08:09;3.10;;;2.83;;
2712;SDS011;1366;47.988;7.856;2023-03-23T14:13:03;3.20;;;2.50;;
2712;SDS011;1366;47.988;7.856;2023-03-23T14:15:30;2.87;;;2.67;;
2712;SDS011;1366;47.988;7.856;2023-03-23T14:17:56;2.43;;;2.23;;
2712;SDS011;1366;47.988;7.856;2023-03-23T14:20:26;2.80;;;2.20;;
2712;SDS011;1366;47.988;7.856;2023-03-23T14:22:57;2.77;;;2.57;;
2712;SDS011;1366;47.988;7.856;2023-03-23T14:25:26;2.53;;;2.40;;
2712;SDS011;1366;47.988;7.856;2023-03-23T14:27:52;3.00;;;2.30;;
2712;SDS011;1366;47.988;7.856;2023-03-23T14:30:20;2.23;;;2.13;;
2712;SDS011;1366;47.988;7.856;2023-03-23T14:32:46;3.07;;;2.83;;
2712;SDS011;1366;47.988;7.856;2023-03-23T14:35:36;2.80;;;2.60;;
2712;SDS011;1366;47.988;7.856;2023-03-23T14:38:03;4.53;;;3.00;;
2712;SDS011;1366;47.988;7.856;2023-03-23T14:40:30;2.87;;;2.60;;
2712;SDS011;1366;47.988;7.856;2023-03-23T14:42:56;3.47;;;2.80;;
2712;SDS011;1366;47.988;7.856;2023-03-23T14:45:23;4.27;;;2.70;;
2712;SDS011;1366;47.988;7.856;2023-03-23T14:47:52;2.83;;;2.50;;
2712;SDS011;1366;47.988;7.856;2023-03-23T14:50:27;2.93;;;2.60;;
2712;SDS011;1366;47.988;7.856;2023-03-23T14:52:56;2.67;;;2.47;;
2712;SDS011;1366;47.988;7.856;2023-03-23T14:55:22;2.40;;;2.30;;
2712;SDS011;1366;47.988;7.856;2023-03-23T14:57:49;2.70;;;2.37;;
2712;SDS011;1366;47.988;7.856;2023-03-23T15:00:17;2.80;;;2.60;;
2712;SDS011;1366;47.988;7.856;2023-03-23T15:02:45;2.93;;;2.40;;
2712;SDS011;1366;47.988;7.856;2023-03-23T15:07:39;2.60;;;2.40;;
2712;SDS011;1366;47.988;7.856;2023-03-23T15:10:09;2.70;;;2.50;;
2712;SDS011;1366;47.988;7.856;2023-03-23T15:12:40;2.80;;;2.60;;
2712;SDS011;1366;47.988;7.856;2023-03-23T15:15:16;2.70;;;2.50;;
2712;SDS011;1366;47.988;7.856;2023-03-23T15:17:45;3.93;;;2.80;;
2712;SDS011;1366;47.988;7.856;2023-03-23T15:20:21;3.00;;;2.80;;
2712;SDS011;1366;47.988;7.856;2023-03-23T15:22:47;2.80;;;2.60;;
2712;SDS011;1366;47.988;7.856;2023-03-23T15:27:44;2.57;;;2.40;;
2712;SDS011;1366;47.988;7.856;2023-03-23T15:32:51;2.93;;;2.73;;
2712;SDS011;1366;47.988;7.856;2023-03-23T15:35:18;3.20;;;2.93;;
2712;SDS011;1366;47.988;7.856;2023-03-23T15:37:47;2.83;;;2.63;;
2712;SDS011;1366;47.988;7.856;2023-03-23T15:40:17;6.73;;;3.23;;
2712;SDS011;1366;47.988;7.856;2023-03-23T15:42:44;2.70;;;2.50;;
2712;SDS011;1366;47.988;7.856;2023-03-23T15:47:44;2.67;;;2.57;;
2712;SDS011;1366;47.988;7.856;2023-03-23T15:52:37;2.90;;;2.70;;
2712;SDS011;1366;47.988;7.856;2023-03-23T15:55:14;3.73;;;2.90;;
2712;SDS011;1366;47.988;7.856;2023-03-23T15:57:42;3.23;;;2.80;;
2712;SDS011;1366;47.988;7.856;2023-03-23T16:00:09;2.97;;;2.57;;
2712;SDS011;1366;47.988;7.856;2023-03-23T16:02:36;3.00;;;2.80;;
2712;SDS011;1366;47.988;7.856;2023-03-23T16:05:02;3.00;;;2.70;;
2712;SDS011;1366;47.988;7.856;2023-03-23T16:07:29;2.90;;;2.70;;
2712;SDS011;1366;47.988;7.856;2023-03-23T16:09:55;2.90;;;2.67;;
2712;SDS011;1366;47.988;7.856;2023-03-23T16:12:21;3.13;;;2.90;;
2712;SDS011;1366;47.988;7.856;2023-03-23T16:14:47;2.90;;;2.70;;
2712;SDS011;1366;47.988;7.856;2023-03-23T16:17:15;3.20;;;2.90;;
2712;SDS011;1366;47.988;7.856;2023-03-23T16:19:41;2.73;;;2.63;;
2712;SDS011;1366;47.988;7.856;2023-03-23T16:22:07;2.80;;;2.60;;
2712;SDS011;1366;47.988;7.856;2023-03-23T16:24:34;2.80;;;2.60;;
2712;SDS011;1366;47.988;7.856;2023-03-23T16:27:00;2.70;;;2.50;;
2712;SDS011;1366;47.988;7.856;2023-03-23T16:29:26;2.70;;;2.50;;
2712;SDS011;1366;47.988;7.856;2023-03-23T16:31:52;4.53;;;3.03;;
2712;SDS011;1366;47.988;7.856;2023-03-23T16:34:18;2.83;;;2.63;;
2712;SDS011;1366;47.988;7.856;2023-03-23T16:36:44;2.87;;;2.67;;
2712;SDS011;1366;47.988;7.856;2023-03-23T16:39:10;2.47;;;2.33;;
2712;SDS011;1366;47.988;7.856;2023-03-23T16:41:37;2.97;;;2.77;;
2712;SDS011;1366;47.988;7.856;2023-03-23T16:44:05;3.80;;;2.50;;
2712;SDS011;1366;47.988;7.856;2023-03-23T16:46:31;4.60;;;2.80;;
2712;SDS011;1366;47.988;7.856;2023-03-23T16:48:57;3.43;;;2.87;;
2712;SDS011;1366;47.988;7.856;2023-03-23T16:51:23;2.93;;;2.73;;
2712;SDS011;1366;47.988;7.856;2023-03-23T16:53:49;3.00;;;2.80;;
2712;SDS011;1366;47.988;7.856;2023-03-23T16:56:15;3.47;;;3.00;;
2712;SDS011;1366;47.988;7.856;2023-03-23T16:58:41;3.33;;;3.13;;
2712;SDS011;1366;47.988;7.856;2023-03-23T17:01:08;2.97;;;2.77;;
2712;SDS011;1366;47.988;7.856;2023-03-23T17:03:34;3.63;;;3.33;;
2712;SDS011;1366;47.988;7.856;2023-03-23T17:06:00;2.73;;;2.53;;
2712;SDS011;1366;47.988;7.856;2023-03-23T17:08:26;3.57;;;3.27;;
2712;SDS011;1366;47.988;7.856;2023-03-23T17:10:53;3.53;;;2.80;;
2712;SDS011;1366;47.988;7.856;2023-03-23T17:13:19;3.43;;;2.80;;
2712;SDS011;1366;47.988;7.856;2023-03-23T17:15:45;2.80;;;2.57;;
2712;SDS011;1366;47.988;7.856;2023-03-23T17:18:11;3.40;;;2.60;;
2712;SDS011;1366;47.988;7.856;2023-03-23T17:20:37;2.70;;;2.60;;
2712;SDS011;1366;47.988;7.856;2023-03-23T17:23:03;3.13;;;2.93;;
2712;SDS011;1366;47.988;7.856;2023-03-23T17:25:30;3.17;;;2.70;;
2712;SDS011;1366;47.988;7.856;2023-03-23T17:27:57;3.50;;;2.70;;
2712;SDS011;1366;47.988;7.856;2023-03-23T17:30:23;3.23;;;3.03;;
2712;SDS011;1366;47.988;7.856;2023-03-23T17:32:49;4.70;;;4.00;;
2712;SDS011;1366;47.988;7.856;2023-03-23T17:35:16;3.73;;;3.50;;
2712;SDS011;1366;47.988;7.856;2023-03-23T17:37:42;4.77;;;3.80;;
2712;SDS011;1366;47.988;7.856;2023-03-23T17:40:08;5.20;;;4.87;;
2712;SDS011;1366;47.988;7.856;2023-03-23T17:42:36;3.03;;;2.83;;
2712;SDS011;1366;47.988;7.856;2023-03-23T17:45:03;2.90;;;2.77;;
2712;SDS011;1366;47.988;7.856;2023-03-23T17:47:30;4.47;;;2.70;;
2712;SDS011;1366;47.988;7.856;2023-03-23T17:49:56;2.73;;;2.57;;
2712;SDS011;1366;47.988;7.856;2023-03-23T17:52:22;2.70;;;2.50;;
2712;SDS011;1366;47.988;7.856;2023-03-23T17:54:48;3.20;;;2.90;;
2712;SDS011;1366;47.988;7.856;2023-03-23T17:57:14;2.97;;;2.70;;
2712;SDS011;1366;47.988;7.856;2023-03-23T17:59:41;2.83;;;2.63;;
2712;SDS011;1366;47.988;7.856;2023-03-23T18:02:07;2.80;;;2.60;;
2712;SDS011;1366;47.988;7.856;2023-03-23T18:04:33;2.70;;;2.50;;
2712;SDS011;1366;47.988;7.856;2023-03-23T18:06:59;2.87;;;2.50;;
2712;SDS011;1366;47.988;7.856;2023-03-23T18:09:25;2.80;;;2.60;;
2712;SDS011;1366;47.988;7.856;2023-03-23T18:11:52;3.07;;;2.77;;
2712;SDS011;1366;47.988;7.856;2023-03-23T18:14:20;2.50;;;2.30;;
2712;SDS011;1366;47.988;7.856;2023-03-23T18:16:47;2.83;;;2.60;;
2712;SDS011;1366;47.988;7.856;2023-03-23T18:19:13;4.37;;;3.00;;
2712;SDS011;1366;47.988;7.856;2023-03-23T18:21:40;4.33;;;2.93;;
2712;SDS011;1366;47.988;7.856;2023-03-23T18:24:06;2.90;;;2.60;;
2712;SDS011;1366;47.988;7.856;2023-03-23T18:26:33;3.17;;;2.87;;
2712;SDS011;1366;47.988;7.856;2023-03-23T18:28:59;3.10;;;2.30;;
2712;SDS011;1366;47.988;7.856;2023-03-23T18:31:25;3.17;;;2.67;;
2712;SDS011;1366;47.988;7.856;2023-03-23T18:33:51;2.57;;;2.37;;
2712;SDS011;1366;47.988;7.856;2023-03-23T18:36:20;2.90;;;2.33;;
2712;SDS011;1366;47.988;7.856;2023-03-23T18:38:46;2.97;;;2.70;;
2712;SDS011;1366;47.988;7.856;2023-03-23T18:41:13;2.73;;;2.63;;
2712;SDS011;1366;47.988;7.856;2023-03-23T18:43:39;2.87;;;2.67;;
2712;SDS011;1366;47.988;7.856;2023-03-23T18:46:05;2.93;;;2.73;;
2712;SDS011;1366;47.988;7.856;2023-03-23T18:48:32;3.63;;;2.77;;
2712;SDS011;1366;47.988;7.856;2023-03-23T18:50:59;3.20;;;2.87;;
2712;SDS011;1366;47.988;7.856;2023-03-23T18:53:26;2.97;;;2.77;;
2712;SDS011;1366;47.988;7.856;2023-03-23T18:55:52;2.77;;;2.57;;
2712;SDS011;1366;47.988;7.856;2023-03-23T18:58:19;5.30;;;3.00;;
2712;SDS011;1366;47.988;7.856;2023-03-23T19:00:45;3.03;;;2.80;;
2712;SDS011;1366;47.988;7.856;2023-03-23T19:03:12;3.80;;;3.30;;
2712;SDS011;1366;47.988;7.856;2023-03-23T19:05:40;4.17;;;3.87;;
2712;SDS011;1366;47.988;7.856;2023-03-23T19:08:06;4.90;;;4.40;;
2712;SDS011;1366;47.988;7.856;2023-03-23T19:10:36;5.10;;;4.70;;
2712;SDS011;1366;47.988;7.856;2023-03-23T19:13:03;4.20;;;3.63;;
2712;SDS011;1366;47.988;7.856;2023-03-23T19:15:29;5.67;;;3.60;;
2712;SDS011;1366;47.988;7.856;2023-03-23T19:17:55;5.30;;;4.17;;
2712;SDS011;1366;47.988;7.856;2023-03-23T19:20:22;4.37;;;3.97;;
2712;SDS011;1366;47.988;7.856;2023-03-23T19:22:48;4.33;;;3.93;;
2712;SDS011;1366;47.988;7.856;2023-03-23T19:25:15;6.87;;;4.40;;
2712;SDS011;1366;47.988;7.856;2023-03-23T19:27:41;7.30;;;3.90;;
2712;SDS011;1366;47.988;7.856;2023-03-23T19:30:08;3.97;;;3.60;;
2712;SDS011;1366;47.988;7.856;2023-03-23T19:32:35;4.33;;;3.93;;
2712;SDS011;1366;47.988;7.856;2023-03-23T19:35:01;4.70;;;4.30;;
2712;SDS011;1366;47.988;7.856;2023-03-23T19:37:27;3.93;;;3.63;;
2712;SDS011;1366;47.988;7.856;2023-03-23T19:39:53;5.20;;;4.00;;
2712;SDS011;1366;47.988;7.856;2023-03-23T19:42:20;4.20;;;3.73;;
2712;SDS011;1366;47.988;7.856;2023-03-23T19:44:46;3.53;;;3.33;;
2712;SDS011;1366;47.988;7.856;2023-03-23T19:47:12;3.50;;;3.00;;
2712;SDS011;1366;47.988;7.856;2023-03-23T19:49:39;4.80;;;4.03;;
2712;SDS011;1366;47.988;7.856;2023-03-23T19:52:05;3.90;;;3.60;;
2712;SDS011;1366;47.988;7.856;2023-03-23T19:54:32;3.77;;;3.57;;
2712;SDS011;1366;47.988;7.856;2023-03-23T19:56:58;3.90;;;3.60;;
2712;SDS011;1366;47.988;7.856;2023-03-23T19:59:25;4.30;;;4.00;;
2712;SDS011;1366;47.988;7.856;2023-03-23T20:01:51;3.80;;;3.50;;
2712;SDS011;1366;47.988;7.856;2023-03-23T20:04:18;3.90;;;3.60;;
2712;SDS011;1366;47.988;7.856;2023-03-23T20:06:45;4.30;;;3.90;;
2712;SDS011;1366;47.988;7.856;2023-03-23T20:09:12;3.70;;;3.33;;
2712;SDS011;1366;47.988;7.856;2023-03-23T20:11:38;3.53;;;3.33;;
2712;SDS011;1366;47.988;7.856;2023-03-23T20:14:04;4.13;;;3.30;;
2712;SDS011;1366;47.988;7.856;2023-03-23T20:16:31;3.93;;;3.53;;
2712;SDS011;1366;47.988;7.856;2023-03-23T20:18:57;3.77;;;3.47;;
2712;SDS011;1366;47.988;7.856;2023-03-23T20:21:23;4.70;;;3.70;;
2712;SDS011;1366;47.988;7.856;2023-03-23T20:23:50;4.30;;;3.90;;
2712;SDS011;1366;47.988;7.856;2023-03-23T20:26:18;3.93;;;3.60;;
2712;SDS011;1366;47.988;7.856;2023-03-23T20:28:44;3.67;;;3.37;;
2712;SDS011;1366;47.988;7.856;2023-03-23T20:31:12;4.10;;;3.80;;
2712;SDS011;1366;47.988;7.856;2023-03-23T20:33:38;4.30;;;3.90;;
2712;SDS011;1366;47.988;7.856;2023-03-23T20:36:05;5.30;;;4.23;;
2712;SDS011;1366;47.988;7.856;2023-03-23T20:38:33;4.00;;;3.70;;
2712;SDS011;1366;47.988;7.856;2023-03-23T20:41:00;4.07;;;3.70;;
2712;SDS011;1366;47.988;7.856;2023-03-23T20:43:29;4.40;;;3.77;;
2712;SDS011;1366;47.988;7.856;2023-03-23T20:45:55;4.33;;;3.93;;
2712;SDS011;1366;47.988;7.856;2023-03-23T20:48:23;4.20;;;3.90;;
2712;SDS011;1366;47.988;7.856;2023-03-23T20:50:51;5.03;;;4.63;;
2712;SDS011;1366;47.988;7.856;2023-03-23T20:53:17;4.00;;;3.70;;
2712;SDS011;1366;47.988;7.856;2023-03-23T20:55:44;4.10;;;3.80;;
2712;SDS011;1366;47.988;7.856;2023-03-23T20:58:10;3.70;;;3.40;;
2712;SDS011;1366;47.988;7.856;2023-03-23T21:00:38;3.70;;;3.40;;
2712;SDS011;1366;47.988;7.856;2023-03-23T21:03:04;3.90;;;3.60;;
2712;SDS011;1366;47.988;7.856;2023-03-23T21:05:32;4.17;;;3.87;;
2712;SDS011;1366;47.988;7.856;2023-03-23T21:07:59;6.77;;;3.93;;
2712;SDS011;1366;47.988;7.856;2023-03-23T21:10:25;3.80;;;3.50;;
2712;SDS011;1366;47.988;7.856;2023-03-23T21:12:52;4.53;;;4.23;;
2712;SDS011;1366;47.988;7.856;2023-03-23T21:15:19;4.00;;;3.40;;
2712;SDS011;1366;47.988;7.856;2023-03-23T21:17:45;4.23;;;3.77;;
2712;SDS011;1366;47.988;7.856;2023-03-23T21:20:11;3.40;;;3.10;;
2712;SDS011;1366;47.988;7.856;2023-03-23T21:22:37;3.80;;;3.50;;
2712;SDS011;1366;47.988;7.856;2023-03-23T21:25:04;6.17;;;3.23;;
2712;SDS011;1366;47.988;7.856;2023-03-23T21:27:30;3.73;;;3.00;;
2712;SDS011;1366;47.988;7.856;2023-03-23T21:29:57;3.70;;;3.40;;
2712;SDS011;1366;47.988;7.856;2023-03-23T21:32:24;3.37;;;3.07;;
2712;SDS011;1366;47.988;7.856;2023-03-23T21:34:51;4.00;;;3.70;;
2712;SDS011;1366;47.988;7.856;2023-03-23T21:37:17;3.40;;;3.17;;
2712;SDS011;1366;47.988;7.856;2023-03-23T21:39:44;3.83;;;3.53;;
2712;SDS011;1366;47.988;7.856;2023-03-23T21:42:10;3.83;;;3.47;;
2712;SDS011;1366;47.988;7.856;2023-03-23T21:44:38;3.90;;;3.60;;
2712;SDS011;1366;47.988;7.856;2023-03-23T21:47:06;3.97;;;3.43;;
2712;SDS011;1366;47.988;7.856;2023-03-23T21:49:33;3.73;;;3.43;;
2712;SDS011;1366;47.988;7.856;2023-03-23T21:52:00;3.80;;;3.50;;
2712;SDS011;1366;47.988;7.856;2023-03-23T21:54:26;3.60;;;3.40;;
2712;SDS011;1366;47.988;7.856;2023-03-23T21:56:58;3.00;;;2.80;;
2712;SDS011;1366;47.988;7.856;2023-03-23T21:59:25;3.40;;;2.77;;
2712;SDS011;1366;47.988;7.856;2023-03-23T22:01:51;3.40;;;3.10;;
2712;SDS011;1366;47.988;7.856;2023-03-23T22:04:19;3.23;;;2.90;;